Time;durP1;ratioP1;P1;durP2;ratioP2;P2;SDS_P1;SDS_P2;PMS_P1;PMS_P2;Temp;Humidity;BMP_temperature;BMP_pressure;BME280_temperature;BME280_humidity;BME280_pressure;Samples;Min_cycle;Max_cycle;Signal;HPM_P1;HPM_P2
2023/03/19 00:01:50;;;;;;;11.90;3.30;;;;;;;7.35;100.00;98348.16;4904971;29;20051;-86
2023/03/19 00:04:36;;;;;;;17.38;4.63;;;;;;;7.26;100.00;98340.47;4901500;29;20466;-86
2023/03/19 00:07:29;;;;;;;12.25;2.92;;;;;;;7.03;100.00;98386.84;4903464;29;20184;-86
2023/03/19 00:10:14;;;;;;;15.80;3.70;;;;;;;6.99;100.00;98358.53;4903152;29;20048;-87
2023/03/19 00:13:01;;;;;;;15.52;3.22;;;;;;;6.97;100.00;98363.13;4916341;29;20510;-86
2023/03/19 00:15:46;;;;;;;24.48;3.58;;;;;;;6.91;100.00;98394.38;4900460;29;20063;-86
2023/03/19 00:18:32;;;;;;;19.85;3.58;;;;;;;6.75;100.00;98390.22;4891864;29;20086;-88
2023/03/19 00:21:16;;;;;;;8.43;2.35;;;;;;;6.68;100.00;98395.38;4883818;29;20063;-87
2023/03/19 00:24:01;;;;;;;18.30;3.58;;;;;;;6.71;100.00;98406.25;4889950;29;20068;-85
2023/03/19 00:26:52;;;;;;;12.07;3.20;;;;;;;6.78;100.00;98395.06;4919228;29;20112;-86
2023/03/19 00:29:36;;;;;;;9.20;2.92;;;;;;;6.69;100.00;98403.03;4885881;29;20100;-85
2023/03/19 00:32:20;;;;;;;16.63;3.05;;;;;;;6.67;100.00;98389.34;4914579;29;20563;-88
2023/03/19 00:35:05;;;;;;;16.17;3.22;;;;;;;6.68;100.00;98411.84;4887143;29;20384;-84
2023/03/19 00:37:52;;;;;;;18.08;3.03;;;;;;;6.86;100.00;98415.81;4890422;29;20055;-84
2023/03/19 00:40:37;;;;;;;14.57;3.13;;;;;;;7.00;100.00;98427.19;4885289;29;20056;-85
2023/03/19 00:43:22;;;;;;;16.58;2.58;;;;;;;6.66;100.00;98413.81;4889844;29;20048;-84
2023/03/19 00:46:09;;;;;;;13.95;2.88;;;;;;;6.80;100.00;98403.50;4880617;29;20052;-84
2023/03/19 00:48:54;;;;;;;16.58;3.10;;;;;;;6.75;100.00;98421.53;4883611;29;20047;-83
2023/03/19 00:51:44;;;;;;;13.63;2.97;;;;;;;6.77;100.00;98424.75;4889799;29;20073;-85
2023/03/19 00:54:37;;;;;;;14.55;2.92;;;;;;;6.84;100.00;98429.06;4880978;29;20079;-84
2023/03/19 00:57:22;;;;;;;7.05;2.47;;;;;;;6.65;100.00;98440.88;4889210;29;20097;-85
2023/03/19 01:00:07;;;;;;;13.90;2.40;;;;;;;7.02;100.00;98421.78;4913112;29;20104;-84
2023/03/19 01:02:51;;;;;;;8.82;2.08;;;;;;;7.03;100.00;98436.44;4880473;29;20068;-84
2023/03/19 01:05:35;;;;;;;15.07;3.05;;;;;;;7.27;100.00;98441.31;4914908;29;20052;-86
2023/03/19 01:08:22;;;;;;;15.75;3.63;;;;;;;7.27;100.00;98440.47;4925095;29;20129;-85
2023/03/19 01:11:09;;;;;;;11.00;2.42;;;;;;;7.29;100.00;98446.31;4906484;29;20098;-87
2023/03/19 01:13:53;;;;;;;12.52;2.45;;;;;;;7.26;100.00;98447.50;4880781;29;20056;-84
2023/03/19 01:16:37;;;;;;;9.23;2.47;;;;;;;7.35;100.00;98478.72;4905870;29;20556;-84
2023/03/19 01:19:21;;;;;;;15.00;2.58;;;;;;;7.19;100.00;98459.69;4880440;29;20416;-85
2023/03/19 01:22:06;;;;;;;13.88;2.97;;;;;;;7.13;100.00;98458.63;4880244;29;20048;-85
2023/03/19 01:24:50;;;;;;;9.65;2.70;;;;;;;7.25;100.00;98469.38;4887580;29;20040;-85
2023/03/19 01:27:38;;;;;;;22.55;3.60;;;;;;;7.04;100.00;98449.31;4898579;29;20557;-85
2023/03/19 01:30:22;;;;;;;12.50;2.38;;;;;;;7.11;100.00;98450.19;4898141;29;20073;-84
2023/03/19 01:33:09;;;;;;;16.42;2.80;;;;;;;7.24;100.00;98457.31;4919425;29;20079;-85
2023/03/19 01:35:54;;;;;;;10.20;2.53;;;;;;;7.27;100.00;98450.91;4882108;29;20120;-85
2023/03/19 01:38:39;;;;;;;16.67;3.38;;;;;;;6.90;100.00;98471.88;4881422;29;20051;-84
2023/03/19 01:41:23;;;;;;;8.68;2.10;;;;;;;6.84;100.00;98449.09;4865882;29;20052;-87
2023/03/19 01:44:27;;;;;;;16.75;4.25;;;;;;;7.00;100.00;98466.34;4861570;29;20136;-87
2023/03/19 01:47:34;;;;;;;11.02;2.35;;;;;;;6.97;100.00;98459.69;4861652;29;20071;-87
2023/03/19 01:50:26;;;;;;;14.40;2.67;;;;;;;7.06;100.00;98470.00;4887202;29;20145;-86
2023/03/19 01:53:12;;;;;;;16.00;2.50;;;;;;;7.16;100.00;98462.69;4871754;29;20455;-83
2023/03/19 01:56:13;;;;;;;19.60;2.70;;;;;;;7.27;100.00;98451.75;4890510;29;20579;-83
2023/03/19 01:59:08;;;;;;;12.55;2.65;;;;;;;7.33;100.00;98462.44;4896934;29;20111;-84
2023/03/19 02:02:00;;;;;;;12.23;2.10;;;;;;;7.53;100.00;98450.34;4912684;29;20124;-84
2023/03/19 02:04:48;;;;;;;16.30;3.05;;;;;;;7.25;100.00;98443.25;4911629;29;20047;-85
2023/03/19 02:07:33;;;;;;;12.07;2.45;;;;;;;7.42;100.00;98449.06;4907825;29;20248;-85
2023/03/19 02:10:19;;;;;;;13.80;2.60;;;;;;;7.40;100.00;98450.22;4889549;29;20059;-87
2023/03/19 02:13:03;;;;;;;14.52;2.50;;;;;;;7.49;100.00;98449.09;4913727;29;20079;-84
2023/03/19 02:15:49;;;;;;;14.68;2.80;;;;;;;7.37;100.00;98458.44;4896168;29;20072;-85
2023/03/19 02:18:35;;;;;;;12.82;2.80;;;;;;;7.30;100.00;98460.97;4897932;29;20355;-87
2023/03/19 02:21:20;;;;;;;10.65;2.35;;;;;;;7.18;100.00;98478.94;4923861;29;20048;-88
2023/03/19 02:24:07;;;;;;;19.42;3.65;;;;;;;7.15;100.00;98468.88;4882267;29;20051;-88
2023/03/19 02:26:52;;;;;;;14.90;2.42;;;;;;;7.10;100.00;98471.25;4905055;29;20103;-86
2023/03/19 02:29:37;;;;;;;15.02;3.10;;;;;;;7.02;100.00;98459.13;4879234;29;20072;-86
2023/03/19 02:32:21;;;;;;;12.75;2.65;;;;;;;7.00;100.00;98458.50;4904816;29;20041;-87
2023/03/19 02:35:08;;;;;;;14.27;2.55;;;;;;;6.87;100.00;98451.34;4904995;29;20055;-85
2023/03/19 02:37:52;;;;;;;13.75;3.95;;;;;;;6.87;100.00;98451.34;4879759;29;20051;-86
2023/03/19 02:40:42;;;;;;;17.00;3.53;;;;;;;6.57;100.00;98469.69;4878988;29;20067;-85
2023/03/19 02:43:27;;;;;;;15.60;3.15;;;;;;;6.44;100.00;98465.13;4879749;29;20061;-86
2023/03/19 02:46:12;;;;;;;10.98;2.40;;;;;;;6.53;100.00;98461.41;4879529;29;20101;-86
2023/03/19 02:48:56;;;;;;;18.55;3.88;;;;;;;6.55;100.00;98463.84;4879855;29;20094;-86
2023/03/19 02:51:40;;;;;;;8.55;2.63;;;;;;;6.46;100.00;98455.31;4879627;29;20515;-90
2023/03/19 02:54:25;;;;;;;13.75;3.05;;;;;;;6.37;100.00;98467.63;4878444;29;20052;-87
2023/03/19 02:57:09;;;;;;;13.27;2.95;;;;;;;6.33;100.00;98486.41;4880163;29;20044;-88
2023/03/19 02:59:53;;;;;;;14.30;3.35;;;;;;;6.52;100.00;98474.63;4880417;29;20052;-87
2023/03/19 03:02:38;;;;;;;10.32;3.38;;;;;;;6.60;100.00;98482.34;4880828;29;20095;-87
2023/03/19 03:05:22;;;;;;;16.67;3.80;;;;;;;6.50;100.00;98498.28;4879235;29;20563;-87
2023/03/19 03:08:06;;;;;;;22.95;3.88;;;;;;;6.34;100.00;98486.25;4879509;29;20498;-89
2023/03/19 03:10:50;;;;;;;15.48;3.88;;;;;;;6.32;100.00;98483.00;4879986;29;20060;-86
2023/03/19 03:13:35;;;;;;;18.98;4.10;;;;;;;6.24;100.00;98493.50;4905791;29;20444;-87
2023/03/19 03:16:20;;;;;;;16.00;3.78;;;;;;;6.56;100.00;98501.97;4880413;29;20466;-87
2023/03/19 03:19:05;;;;;;;23.55;4.38;;;;;;;6.85;100.00;98508.09;4911184;29;20077;-86
2023/03/19 03:21:50;;;;;;;18.48;3.97;;;;;;;6.66;100.00;98486.81;4885892;29;20114;-91
2023/03/19 03:24:34;;;;;;;14.43;4.03;;;;;;;6.50;100.00;98497.47;4915343;29;20515;-90
2023/03/19 03:27:18;;;;;;;19.65;4.18;;;;;;;6.41;100.00;98505.38;4902887;29;20527;-86
2023/03/19 03:30:07;;;;;;;16.73;4.50;;;;;;;6.45;100.00;98518.88;4902186;29;20059;-89
2023/03/19 03:32:52;;;;;;;15.40;3.70;;;;;;;6.44;100.00;98509.44;4914882;29;20075;-89
2023/03/19 03:35:35;;;;;;;17.95;4.53;;;;;;;6.21;100.00;98504.31;4914728;29;20048;-86
2023/03/19 03:38:20;;;;;;;10.63;3.67;;;;;;;6.24;100.00;98504.75;4901501;29;20184;-87
2023/03/19 03:41:04;;;;;;;14.10;3.45;;;;;;;6.13;100.00;98503.41;4901022;29;20048;-87
2023/03/19 03:43:48;;;;;;;15.73;3.97;;;;;;;6.33;100.00;98512.47;4900703;29;20051;-86
2023/03/19 03:46:33;;;;;;;16.77;3.70;;;;;;;6.26;100.00;98517.59;4886522;29;20056;-86
2023/03/19 03:49:17;;;;;;;9.02;2.78;;;;;;;6.15;100.00;98516.25;4901301;29;20055;-86
2023/03/19 03:52:01;;;;;;;14.88;2.95;;;;;;;6.09;100.00;98507.38;4902712;29;20510;-86
2023/03/19 03:54:45;;;;;;;11.60;3.80;;;;;;;6.03;100.00;98502.84;4890990;29;20510;-85
2023/03/19 03:57:29;;;;;;;10.02;3.17;;;;;;;6.11;100.00;98505.38;4913098;29;20047;-87
2023/03/19 04:00:14;;;;;;;10.43;3.47;;;;;;;6.07;100.00;98540.59;4894234;29;20142;-87
2023/03/19 04:02:58;;;;;;;10.45;3.33;;;;;;;6.05;100.00;98507.91;4895991;29;20072;-90
2023/03/19 04:05:43;;;;;;;8.98;3.15;;;;;;;6.05;100.00;98526.13;4887953;29;20055;-85
2023/03/19 04:08:28;;;;;;;14.40;4.10;;;;;;;6.12;100.00;98521.81;4935056;29;20050;-91
2023/03/19 04:11:13;;;;;;;17.50;4.07;;;;;;;6.17;100.00;98527.28;4912105;29;20091;-88
2023/03/19 04:13:58;;;;;;;11.63;3.58;;;;;;;6.07;100.00;98526.75;4921991;29;20055;-90
2023/03/19 04:16:42;;;;;;;13.23;3.47;;;;;;;6.10;100.00;98514.19;4890575;29;20406;-90
2023/03/19 04:19:27;;;;;;;14.30;3.33;;;;;;;5.99;100.00;98538.03;4917181;29;20058;-88
2023/03/19 04:22:11;;;;;;;10.98;3.53;;;;;;;6.01;100.00;98546.50;4890041;29;20043;-87
2023/03/19 04:24:55;;;;;;;11.20;3.17;;;;;;;6.20;100.00;98542.59;4903058;29;20052;-89
2023/03/19 04:27:39;;;;;;;12.20;3.58;;;;;;;6.18;100.00;98554.19;4914859;29;20051;-88
2023/03/19 04:30:23;;;;;;;11.18;3.30;;;;;;;6.11;100.00;98567.09;4914191;29;20096;-90
2023/03/19 04:33:09;;;;;;;18.23;3.50;;;;;;;6.19;100.00;98564.44;4883534;29;20044;-86
2023/03/19 04:35:54;;;;;;;12.57;4.05;;;;;;;6.12;100.00;98553.91;4888067;29;20055;-85
2023/03/19 04:38:38;;;;;;;9.52;3.42;;;;;;;6.16;100.00;98564.78;4899325;29;20095;-86
2023/03/19 04:41:22;;;;;;;20.83;3.33;;;;;;;6.22;100.00;98558.88;4900085;29;20518;-83
2023/03/19 04:44:06;;;;;;;18.55;3.63;;;;;;;6.08;100.00;98567.47;4885521;29;20239;-85
2023/03/19 04:46:51;;;;;;;14.48;3.83;;;;;;;6.26;100.00;98572.31;4885444;29;20104;-85
2023/03/19 04:49:36;;;;;;;15.02;3.45;;;;;;;6.14;100.00;98557.16;4899215;29;20402;-86
2023/03/19 04:52:20;;;;;;;8.52;2.92;;;;;;;6.34;100.00;98580.09;4899984;29;20444;-88
2023/03/19 04:55:05;;;;;;;13.38;3.67;;;;;;;6.17;100.00;98576.81;4899800;29;20100;-85
2023/03/19 04:57:49;;;;;;;12.07;3.40;;;;;;;6.19;100.00;98581.84;4899869;29;20139;-85
2023/03/19 05:00:34;;;;;;;11.93;3.40;;;;;;;6.23;100.00;98591.75;4885386;29;20059;-85
2023/03/19 05:03:21;;;;;;;11.60;3.45;;;;;;;6.10;100.00;98581.13;4899806;29;20132;-86
2023/03/19 05:06:08;;;;;;;11.23;2.67;;;;;;;6.07;100.00;98586.69;4899799;29;20127;-86
2023/03/19 05:08:52;;;;;;;14.25;3.28;;;;;;;6.10;100.00;98597.56;4899595;29;20051;-87
2023/03/19 05:11:36;;;;;;;8.15;3.40;;;;;;;6.09;100.00;98584.72;4900329;29;20051;-89
2023/03/19 05:14:20;;;;;;;13.68;3.25;;;;;;;6.04;100.00;98593.06;4900332;29;20132;-86
2023/03/19 05:17:05;;;;;;;11.50;3.42;;;;;;;5.97;100.00;98585.09;4899787;29;20403;-86
2023/03/19 05:19:49;;;;;;;9.32;2.88;;;;;;;6.05;100.00;98599.88;4881021;29;20060;-86
2023/03/19 05:22:33;;;;;;;11.20;2.95;;;;;;;6.26;100.00;98595.78;4880197;29;20136;-86
2023/03/19 05:25:18;;;;;;;9.25;3.50;;;;;;;6.00;100.00;98591.75;4880127;29;20068;-84
2023/03/19 05:28:04;;;;;;;18.55;3.00;;;;;;;6.18;100.00;98591.47;4880030;29;20128;-88
2023/03/19 05:30:48;;;;;;;7.60;2.50;;;;;;;6.11;100.00;98603.59;4880271;29;20048;-86
2023/03/19 05:33:32;;;;;;;7.97;2.60;;;;;;;6.05;100.00;98599.88;4880392;29;20056;-86
2023/03/19 05:36:17;;;;;;;7.80;2.88;;;;;;;6.24;100.00;98613.41;4880318;29;20574;-87
2023/03/19 05:39:02;;;;;;;10.25;2.50;;;;;;;6.17;100.00;98641.97;4880417;29;20120;-86
2023/03/19 05:41:46;;;;;;;14.38;3.13;;;;;;;6.20;100.00;98625.19;4906360;29;20065;-87
2023/03/19 05:44:30;;;;;;;6.70;2.47;;;;;;;6.32;100.00;98621.16;4879220;29;20105;-85
2023/03/19 05:47:15;;;;;;;9.05;3.30;;;;;;;6.48;100.00;98620.19;4879773;29;20051;-86
2023/03/19 05:49:59;;;;;;;13.43;3.15;;;;;;;6.19;100.00;98618.34;4891815;29;20048;-85
2023/03/19 05:52:43;;;;;;;5.88;2.60;;;;;;;6.42;100.00;98624.31;4879687;29;20045;-85
2023/03/19 05:55:27;;;;;;;10.98;2.75;;;;;;;6.43;100.00;98633.75;4912108;29;20096;-87
2023/03/19 05:58:11;;;;;;;6.68;2.50;;;;;;;6.34;100.00;98632.22;4898191;29;20051;-85
2023/03/19 06:00:55;;;;;;;7.07;2.70;;;;;;;6.27;100.00;98649.53;4898145;29;20092;-87
2023/03/19 06:03:39;;;;;;;5.55;2.88;;;;;;;6.24;100.00;98648.13;4898377;29;20108;-84
2023/03/19 06:06:24;;;;;;;7.57;2.83;;;;;;;6.31;100.00;98640.41;4898346;29;20067;-86
2023/03/19 06:09:08;;;;;;;7.95;2.67;;;;;;;6.17;100.00;98651.59;4898854;29;20051;-86
2023/03/19 06:11:52;;;;;;;10.40;3.08;;;;;;;6.33;100.00;98656.66;4924254;29;20047;-86
2023/03/19 06:14:36;;;;;;;12.35;3.85;;;;;;;6.35;100.00;98661.69;4917036;29;20097;-86
2023/03/19 06:17:20;;;;;;;14.50;2.95;;;;;;;6.30;100.00;98659.63;4879458;29;20044;-86
2023/03/19 06:20:04;;;;;;;9.40;3.28;;;;;;;6.31;100.00;98660.44;4892180;29;20076;-87
2023/03/19 06:22:48;;;;;;;8.77;3.00;;;;;;;6.37;100.00;98677.97;4881447;29;20047;-87
2023/03/19 06:25:32;;;;;;;11.15;3.00;;;;;;;6.26;100.00;98673.97;4895971;29;20407;-87
2023/03/19 06:28:16;;;;;;;11.35;3.42;;;;;;;6.40;100.00;98675.03;4898506;29;20114;-89
2023/03/19 06:31:00;;;;;;;15.48;3.50;;;;;;;6.36;100.00;98674.56;4884445;29;20100;-87
2023/03/19 06:33:44;;;;;;;15.85;3.53;;;;;;;6.48;100.00;98674.13;4898131;29;20036;-86
2023/03/19 06:36:29;;;;;;;11.32;3.90;;;;;;;6.37;100.00;98673.56;4911069;29;20083;-88
2023/03/19 06:39:13;;;;;;;9.93;3.05;;;;;;;6.35;100.00;98699.00;4898526;29;20047;-85
2023/03/19 06:41:56;;;;;;;9.60;3.22;;;;;;;6.43;100.00;98688.50;4898220;29;20477;-89
2023/03/19 06:44:40;;;;;;;14.75;3.80;;;;;;;6.43;100.00;98696.31;4898485;29;20056;-89
2023/03/19 06:47:25;;;;;;;13.35;4.10;;;;;;;6.47;100.00;98688.16;4911549;29;20176;-89
2023/03/19 06:50:10;;;;;;;11.00;3.20;;;;;;;6.45;100.00;98703.97;4884677;29;20048;-87
2023/03/19 06:52:54;;;;;;;10.35;3.15;;;;;;;6.63;100.00;98693.22;4878815;29;20043;-89
2023/03/19 06:55:45;;;;;;;15.43;4.03;;;;;;;6.76;100.00;98699.63;4887288;29;20068;-90
2023/03/19 07:02:30;;;;;;;15.93;3.80;;;;;;;6.69;100.00;98709.97;4909168;29;20047;-88
2023/03/19 07:05:14;;;;;;;9.45;3.10;;;;;;;6.72;100.00;98718.25;4905046;29;20056;-90
2023/03/19 07:07:58;;;;;;;13.40;3.20;;;;;;;6.82;100.00;98725.00;4901744;29;20099;-87
2023/03/19 07:10:42;;;;;;;10.75;3.22;;;;;;;7.27;100.00;98727.66;4914844;29;20042;-87
2023/03/19 07:13:26;;;;;;;10.82;3.33;;;;;;;7.01;100.00;98741.97;4904085;29;20132;-86
2023/03/19 07:16:10;;;;;;;10.98;3.45;;;;;;;7.09;100.00;98741.06;4904495;29;20479;-88
2023/03/19 07:18:55;;;;;;;11.70;3.13;;;;;;;7.19;100.00;98746.81;4890003;29;20522;-85
2023/03/19 07:21:40;;;;;;;12.52;3.40;;;;;;;7.05;100.00;98745.00;4892340;29;20195;-83
2023/03/19 07:24:24;;;;;;;9.93;3.00;;;;;;;7.11;100.00;98744.31;4897742;29;20051;-84
2023/03/19 07:27:09;;;;;;;13.05;3.35;;;;;;;7.33;100.00;98752.22;4893552;29;20087;-85
2023/03/19 07:29:54;;;;;;;11.95;3.53;;;;;;;7.31;100.00;98751.59;4892325;29;20051;-84
2023/03/19 07:32:38;;;;;;;8.85;3.22;;;;;;;7.34;100.00;98756.47;4909997;29;20136;-84
2023/03/19 07:35:22;;;;;;;15.10;3.10;;;;;;;7.62;100.00;98761.03;4911788;29;20047;-84
2023/03/19 07:38:06;;;;;;;13.00;3.00;;;;;;;7.66;100.00;98750.03;4913548;29;20051;-89
2023/03/19 07:40:50;;;;;;;14.15;2.80;;;;;;;7.65;100.00;98755.44;4945861;29;20051;-87
2023/03/19 07:43:34;;;;;;;13.77;3.30;;;;;;;7.43;100.00;98765.81;4921467;29;20048;-87
2023/03/19 07:46:19;;;;;;;9.77;2.70;;;;;;;7.74;100.00;98775.25;4927586;29;20051;-86
2023/03/19 07:49:03;;;;;;;13.60;2.38;;;;;;;7.75;100.00;98763.81;4922737;29;20051;-89
2023/03/19 07:51:47;;;;;;;9.50;2.72;;;;;;;7.68;100.00;98765.53;4899333;29;20059;-83
2023/03/19 07:54:31;;;;;;;11.40;3.90;;;;;;;7.60;100.00;98778.69;4897579;29;20575;-85
2023/03/19 07:57:16;;;;;;;8.02;2.55;;;;;;;7.80;100.00;98799.84;4923304;29;20047;-84
2023/03/19 08:00:00;;;;;;;12.95;2.35;;;;;;;7.88;100.00;98796.31;4888183;29;20073;-86
2023/03/19 08:02:45;;;;;;;4.78;2.13;;;;;;;8.09;100.00;98793.75;4917058;29;20058;-87
2023/03/19 08:05:29;;;;;;;11.05;2.33;;;;;;;8.15;100.00;98792.19;4900834;29;20055;-85
2023/03/19 08:08:14;;;;;;;11.57;2.45;;;;;;;8.39;100.00;98804.09;4903101;29;20490;-90
2023/03/19 08:10:58;;;;;;;5.90;2.13;;;;;;;8.52;100.00;98803.44;4896178;29;20102;-87
2023/03/19 08:13:42;;;;;;;8.55;3.03;;;;;;;8.14;100.00;98812.31;4911371;29;20039;-85
2023/03/19 08:19:48;;;;;;;10.30;2.40;;;;;;;8.55;100.00;98808.34;4895764;29;20126;-88
2023/03/19 08:22:36;;;;;;;10.77;2.78;;;;;;;8.76;100.00;98813.75;4896342;29;20106;-87
2023/03/19 08:25:23;;;;;;;8.43;2.58;;;;;;;8.89;100.00;98800.78;4871882;29;20498;-88
2023/03/19 08:28:11;;;;;;;7.03;2.20;;;;;;;9.19;100.00;98813.66;4891261;29;20044;-86
2023/03/19 08:30:55;;;;;;;10.13;2.10;;;;;;;9.00;100.00;98807.28;4888664;29;20036;-91
2023/03/19 08:33:40;;;;;;;10.70;2.30;;;;;;;8.61;100.00;98825.06;4920210;29;20510;-88
2023/03/19 08:40:49;;;;;;;12.25;2.53;;;;;;;8.65;100.00;98844.66;4890071;29;20056;-89
2023/03/19 08:43:38;;;;;;;11.20;2.20;;;;;;;8.60;100.00;98835.75;4901749;29;20172;-90
2023/03/19 08:46:26;;;;;;;11.57;2.53;;;;;;;8.97;100.00;98829.41;4905315;29;20650;-87
2023/03/19 08:49:13;;;;;;;9.05;2.08;;;;;;;8.81;100.00;98854.06;4903011;29;20048;-91
2023/03/19 08:51:57;;;;;;;7.03;2.30;;;;;;;8.64;100.00;98853.47;4897941;29;20120;-88
2023/03/19 08:54:41;;;;;;;8.20;2.08;;;;;;;8.81;100.00;98848.00;4908477;29;20132;-90
2023/03/19 08:57:26;;;;;;;9.80;1.70;;;;;;;8.71;100.00;98854.38;4893762;29;20566;-88
2023/03/19 09:00:11;;;;;;;6.55;1.83;;;;;;;8.69;100.00;98848.50;4915372;29;20087;-86
2023/03/19 09:03:13;;;;;;;6.40;1.90;;;;;;;8.75;100.00;98875.75;4920221;29;20081;-91
2023/03/19 09:09:21;;;;;;;6.10;1.63;;;;;;;8.76;100.00;98872.13;5173822;23;20053;-90
2023/03/19 09:19:22;;;;;;;4.88;1.85;;;;;;;8.93;100.00;98888.38;4996797;23;20053;-91
2023/03/19 09:22:08;;;;;;;8.55;1.90;;;;;;;8.64;100.00;98861.31;4864670;29;20420;-91
2023/03/19 09:29:00;;;;;;;8.70;1.92;;;;;;;8.88;100.00;98867.22;4876262;29;20055;-91
2023/03/19 09:31:45;;;;;;;8.30;2.10;;;;;;;8.98;100.00;98880.78;4870038;29;20171;-90
2023/03/19 09:34:36;;;;;;;6.32;1.70;;;;;;;9.14;100.00;98892.00;4857765;29;20154;-91
2023/03/19 09:37:21;;;;;;;6.25;1.75;;;;;;;9.40;100.00;98878.28;4866581;29;20060;-91
2023/03/19 09:40:15;;;;;;;7.47;2.15;;;;;;;9.42;100.00;98889.38;4881139;29;20044;-90
2023/03/19 09:43:36;;;;;;;11.63;2.25;;;;;;;9.56;100.00;98890.28;4858736;29;20105;-89
2023/03/19 09:46:28;;;;;;;8.32;2.15;;;;;;;9.33;100.00;98913.28;4859723;29;20036;-86
2023/03/19 09:49:21;;;;;;;13.50;2.15;;;;;;;9.51;100.00;98900.53;4873152;29;20047;-91
2023/03/19 09:52:55;;;;;;;9.55;1.63;;;;;;;9.81;100.00;98895.06;4855986;29;20052;-91
2023/03/19 09:55:39;;;;;;;9.27;1.90;;;;;;;9.81;100.00;98899.53;4810956;29;20103;-89
2023/03/19 09:58:30;;;;;;;7.78;2.10;;;;;;;9.70;100.00;98899.03;4871643;29;20059;-89
2023/03/19 10:01:25;;;;;;;5.45;1.73;;;;;;;10.11;100.00;98907.94;4869558;29;20553;-88
2023/03/19 10:04:42;;;;;;;7.65;1.95;;;;;;;9.83;100.00;98919.31;4850779;29;20117;-89
2023/03/19 10:07:39;;;;;;;4.68;1.90;;;;;;;9.76;100.00;98923.69;4872043;29;20100;-86
2023/03/19 10:10:30;;;;;;;6.95;1.67;;;;;;;10.12;100.00;98938.41;4851514;29;20075;-85
2023/03/19 10:13:43;;;;;;;5.63;1.70;;;;;;;10.25;100.00;98931.63;4871363;29;20039;-90
2023/03/19 10:16:28;;;;;;;8.05;2.03;;;;;;;10.27;100.00;98924.38;4856962;29;20515;-82
2023/03/19 10:19:17;;;;;;;7.22;2.10;;;;;;;10.46;100.00;98919.44;4851085;29;20061;-84
2023/03/19 10:22:10;;;;;;;5.60;1.70;;;;;;;10.60;100.00;98936.81;4849615;29;20098;-83
2023/03/19 10:24:56;;;;;;;7.80;2.07;;;;;;;10.88;100.00;98922.78;4850740;29;20438;-83
2023/03/19 10:27:42;;;;;;;6.72;1.73;;;;;;;11.12;100.00;98921.41;4847981;29;20466;-86
2023/03/19 10:30:32;;;;;;;5.75;1.90;;;;;;;10.85;100.00;98913.47;4850286;29;20095;-85
2023/03/19 10:33:22;;;;;;;5.97;1.83;;;;;;;11.00;100.00;98934.31;4849442;29;20060;-85
2023/03/19 10:36:09;;;;;;;5.97;2.33;;;;;;;10.53;100.00;98939.44;4863011;29;20101;-85
2023/03/19 10:38:54;;;;;;;4.78;1.80;;;;;;;10.73;100.00;98945.75;4859400;29;20179;-84
2023/03/19 10:42:00;;;;;;;7.40;1.85;;;;;;;11.47;100.00;98954.56;4860849;29;20504;-82
2023/03/19 10:44:49;;;;;;;10.95;1.83;;;;;;;11.84;100.00;98954.94;4857179;29;20044;-82
2023/03/19 10:47:38;;;;;;;5.68;1.80;;;;;;;11.69;100.00;98965.69;4853678;29;20049;-82
2023/03/19 10:50:33;;;;;;;6.45;1.65;;;;;;;11.79;100.00;98954.75;4852735;29;20076;-85
2023/03/19 10:53:17;;;;;;;7.45;1.80;;;;;;;11.52;100.00;98967.88;4864617;29;20056;-86
2023/03/19 10:56:01;;;;;;;5.75;1.70;;;;;;;11.76;100.00;98963.00;4852181;29;20111;-85
2023/03/19 10:59:20;;;;;;;4.38;1.77;;;;;;;12.37;100.00;98963.72;4845711;29;20540;-84
2023/03/19 11:02:21;;;;;;;5.72;1.60;;;;;;;13.26;100.00;98955.16;4854211;29;20404;-84
2023/03/19 11:05:12;;;;;;;6.30;2.40;;;;;;;13.64;99.04;98956.09;4853965;29;20052;-85
2023/03/19 11:08:17;;;;;;;6.95;1.75;;;;;;;13.26;96.80;98964.88;4857746;29;20557;-84
2023/03/19 11:11:01;;;;;;;4.07;2.22;;;;;;;13.13;97.31;98957.88;4849064;29;20553;-83
2023/03/19 11:13:46;;;;;;;5.85;1.60;;;;;;;13.29;98.90;98959.19;4851560;29;20093;-85
2023/03/19 11:16:32;;;;;;;3.38;2.00;;;;;;;12.90;98.21;98961.88;4855526;29;20564;-84
2023/03/19 11:19:23;;;;;;;8.25;1.85;;;;;;;12.77;99.42;98961.91;4873940;29;20416;-84
2023/03/19 11:22:15;;;;;;;10.30;2.03;;;;;;;12.93;98.40;98966.69;4866561;29;20401;-83
2023/03/19 11:25:13;;;;;;;4.72;1.92;;;;;;;12.51;100.00;98977.66;4868857;29;20056;-84
2023/03/19 11:28:18;;;;;;;6.22;2.25;;;;;;;12.13;100.00;98971.28;4866194;29;20097;-83
2023/03/19 11:31:24;;;;;;;4.15;1.55;;;;;;;12.65;97.77;98957.34;4864296;29;20068;-84
2023/03/19 11:34:23;;;;;;;2.90;1.58;;;;;;;13.17;96.89;98951.19;4864371;29;20531;-85
2023/03/19 11:37:27;;;;;;;8.38;1.88;;;;;;;13.21;95.14;98962.91;4864581;29;20056;-85
2023/03/19 11:40:45;;;;;;;5.57;2.20;;;;;;;13.04;92.86;98951.25;4868589;29;20055;-84
2023/03/19 11:43:58;;;;;;;4.55;1.75;;;;;;;12.82;93.54;98951.59;4881354;29;20251;-84
2023/03/19 11:46:52;;;;;;;4.97;1.88;;;;;;;12.64;94.01;98958.34;4870541;29;20412;-84
2023/03/19 11:49:53;;;;;;;5.47;1.70;;;;;;;12.25;94.79;98960.13;4856118;29;20099;-84
2023/03/19 11:52:45;;;;;;;3.03;1.45;;;;;;;12.46;96.46;98966.13;4867701;29;20062;-84
2023/03/19 11:56:00;;;;;;;6.85;1.60;;;;;;;12.35;94.92;98952.59;4870697;29;20614;-82
2023/03/19 11:59:16;;;;;;;7.00;1.90;;;;;;;12.35;95.74;98965.75;4874948;29;20039;-85
2023/03/19 12:02:08;;;;;;;6.43;1.92;;;;;;;12.49;95.27;98965.72;4870399;29;20045;-83
2023/03/19 12:05:04;;;;;;;4.78;1.70;;;;;;;12.42;95.25;98971.81;4866038;29;20052;-82
2023/03/19 12:07:51;;;;;;;5.30;1.70;;;;;;;12.14;96.00;98972.91;4868066;29;20065;-83
2023/03/19 12:10:54;;;;;;;6.13;1.73;;;;;;;12.00;96.95;98963.41;4866029;29;20488;-84
2023/03/19 12:14:11;;;;;;;4.13;1.47;;;;;;;12.00;96.78;98961.56;4871668;29;20045;-84
2023/03/19 12:17:02;;;;;;;8.68;2.10;;;;;;;12.04;96.40;98963.81;4871893;29;20680;-84
2023/03/19 12:20:29;;;;;;;5.15;1.77;;;;;;;12.20;95.22;98967.84;4871890;29;20052;-84
2023/03/19 12:23:25;;;;;;;4.65;1.70;;;;;;;12.23;95.81;98968.22;4853231;29;20044;-85
2023/03/19 12:26:20;;;;;;;7.45;1.70;;;;;;;12.00;94.63;98963.41;4865959;29;20044;-84
2023/03/19 12:29:22;;;;;;;4.80;1.50;;;;;;;11.98;94.65;98970.66;4871040;29;20488;-82
2023/03/19 12:32:26;;;;;;;4.35;1.75;;;;;;;12.53;95.02;98965.09;4868110;29;20090;-82
2023/03/19 12:35:15;;;;;;;4.00;1.27;;;;;;;11.98;95.40;98968.03;4872329;29;20092;-84
2023/03/19 12:38:35;;;;;;;6.65;1.83;;;;;;;12.47;95.19;98978.28;4867633;29;20052;-82
2023/03/19 12:41:26;;;;;;;10.15;2.20;;;;;;;12.51;96.55;98980.28;4873761;29;20060;-84
2023/03/19 12:44:35;;;;;;;7.45;1.80;;;;;;;12.70;95.25;98983.06;4870771;29;20145;-85
2023/03/19 12:47:38;;;;;;;7.13;1.83;;;;;;;12.67;95.59;98991.34;4853904;29;20072;-84
2023/03/19 12:50:25;;;;;;;7.68;2.55;;;;;;;12.51;95.37;98987.38;4868540;29;20507;-84
2023/03/19 12:53:33;;;;;;;8.30;1.98;;;;;;;12.13;95.20;98984.44;4867506;29;20035;-85
2023/03/19 12:56:28;;;;;;;7.75;1.98;;;;;;;12.19;95.93;99003.84;4873234;29;20063;-86
2023/03/19 12:59:26;;;;;;;7.68;1.85;;;;;;;12.24;95.84;98993.53;4866720;29;20064;-86
2023/03/19 13:02:43;;;;;;;7.40;2.22;;;;;;;12.05;96.95;98987.28;4870293;29;20048;-86
2023/03/19 13:06:05;;;;;;;12.80;2.00;;;;;;;12.51;96.09;98996.09;4852481;29;20053;-84
2023/03/19 13:08:58;;;;;;;5.97;2.30;;;;;;;13.17;93.51;98987.25;4866408;29;20094;-85
2023/03/19 13:11:51;;;;;;;8.17;2.60;;;;;;;13.07;92.19;98982.44;4872712;29;20068;-84
2023/03/19 13:14:54;;;;;;;10.70;3.50;;;;;;;12.89;92.39;98991.84;4876144;29;20051;-85
2023/03/19 13:18:09;;;;;;;6.53;2.80;;;;;;;12.91;92.11;98994.28;4870410;29;20096;-84
2023/03/19 13:21:13;;;;;;;6.40;2.28;;;;;;;12.85;92.94;98993.31;4864938;29;20055;-84
2023/03/19 13:24:20;;;;;;;5.88;2.30;;;;;;;12.90;91.37;98998.75;4870426;29;20052;-83
2023/03/19 13:27:09;;;;;;;5.78;2.08;;;;;;;12.48;91.49;99001.78;4874173;29;20564;-84
2023/03/19 13:30:09;;;;;;;6.45;2.13;;;;;;;12.43;92.66;98994.50;4871716;29;20123;-86
2023/03/19 13:33:02;;;;;;;5.28;2.22;;;;;;;12.40;93.40;99000.19;4879384;29;20048;-86
2023/03/19 13:35:51;;;;;;;8.00;3.42;;;;;;;12.83;91.94;98998.78;4868751;29;20553;-84
2023/03/19 13:38:47;;;;;;;10.63;3.17;;;;;;;12.83;90.58;99001.41;4876543;29;20109;-85